createdAt,value
2023-04-02T00:01:06.278Z,5.13
2023-04-02T00:03:45.657Z,3.75
2023-04-02T00:06:41.075Z,3.85
2023-04-02T00:09:18.516Z,4.68
2023-04-02T00:11:51.283Z,5.90
2023-04-02T00:14:31.441Z,6.60
2023-04-02T00:17:05.476Z,5.32
2023-04-02T00:19:52.875Z,4.30
2023-04-02T00:22:28.304Z,5.13
2023-04-02T00:24:59.196Z,7.95
2023-04-02T00:27:29.282Z,8.32
2023-04-02T00:30:03.235Z,8.52
2023-04-02T00:32:35.153Z,9.65
2023-04-02T00:35:12.541Z,10.25
2023-04-02T00:37:43.411Z,11.25
2023-04-02T00:40:22.712Z,12.55
2023-04-02T00:42:54.903Z,10.65
2023-04-02T00:45:27.274Z,9.18
2023-04-02T00:47:58.957Z,8.32
2023-04-02T00:50:41.651Z,9.80
2023-04-02T00:53:17.225Z,5.80
2023-04-02T00:55:47.937Z,6.70
2023-04-02T00:58:34.407Z,5.22
2023-04-02T01:01:06.136Z,5.88
2023-04-02T01:03:39.256Z,5.55
2023-04-02T01:06:19.961Z,5.15
2023-04-02T01:09:25.645Z,4.93
2023-04-02T01:15:01.820Z,5.88
2023-04-02T01:17:43.911Z,6.10
2023-04-02T01:20:34.573Z,5.88
2023-04-02T01:23:20.396Z,5.43
2023-04-02T01:26:13.321Z,4.63
2023-04-02T01:28:58.877Z,4.32
2023-04-02T01:31:29.967Z,4.38
2023-04-02T01:34:01.784Z,4.30
2023-04-02T01:36:49.721Z,4.53
2023-04-02T01:39:37.240Z,4.03
2023-04-02T01:42:59.567Z,4.40
2023-04-02T01:45:30.610Z,4.72
2023-04-02T01:48:00.891Z,5.15
2023-04-02T01:50:38.121Z,4.70
2023-04-02T01:53:13.581Z,4.50
2023-04-02T01:55:54.410Z,4.70
2023-04-02T01:58:27.256Z,4.15
2023-04-02T02:01:20.183Z,4.13
2023-04-02T02:03:54.684Z,3.92
2023-04-02T02:06:25.952Z,4.45
2023-04-02T02:08:58.696Z,4.18
2023-04-02T02:11:31.736Z,4.50
2023-04-02T02:14:07.705Z,4.60
2023-04-02T02:16:43.080Z,4.28
2023-04-02T02:19:34.017Z,4.25
2023-04-02T02:22:31.878Z,4.57
2023-04-02T02:25:06.523Z,4.13
2023-04-02T02:28:14.069Z,3.90
2023-04-02T02:30:47.023Z,4.70
2023-04-02T02:33:28.425Z,3.70
2023-04-02T02:36:28.437Z,4.15
2023-04-02T02:39:08.735Z,4.28
2023-04-02T02:41:53.634Z,4.30
2023-04-02T02:44:51.965Z,4.22
2023-04-02T02:47:29.631Z,4.13
2023-04-02T02:50:11.546Z,4.80
2023-04-02T02:52:45.882Z,4.13
2023-04-02T02:55:20.650Z,3.88
2023-04-02T02:58:10.108Z,4.80
2023-04-02T03:00:51.883Z,4.72
2023-04-02T03:03:25.993Z,4.72
2023-04-02T03:06:08.691Z,4.75
2023-04-02T03:08:46.610Z,5.35
2023-04-02T03:11:51.985Z,4.32
2023-04-02T03:14:41.797Z,3.88
2023-04-02T03:17:36.142Z,4.03
2023-04-02T03:20:21.258Z,5.07
2023-04-02T03:23:02.004Z,3.97
2023-04-02T03:26:18.392Z,4.65
2023-04-02T03:28:57.459Z,7.38
2023-04-02T03:31:59.309Z,8.55
2023-04-02T03:34:43.108Z,8.23
2023-04-02T03:37:17.458Z,9.15
2023-04-02T03:39:59.153Z,9.25
2023-04-02T03:42:38.712Z,8.05
2023-04-02T03:45:28.668Z,7.97
2023-04-02T03:48:22.698Z,7.70
2023-04-02T03:51:04.739Z,6.47
2023-04-02T03:53:36.021Z,6.55
2023-04-02T03:56:08.798Z,7.40
2023-04-02T03:58:48.406Z,7.75
2023-04-02T04:01:35.596Z,7.97
2023-04-02T04:04:15.792Z,6.85
2023-04-02T04:06:51.227Z,7.25
2023-04-02T04:09:36.665Z,8.15
2023-04-02T04:12:23.699Z,7.13
2023-04-02T04:15:16.837Z,7.60
2023-04-02T04:18:20.285Z,7.15
2023-04-02T04:21:03.287Z,6.65
2023-04-02T04:23:42.564Z,6.22
2023-04-02T04:29:10.746Z,5.85
2023-04-02T04:31:50.587Z,5.72
2023-04-02T04:34:54.620Z,4.97
2023-04-02T04:37:37.297Z,6.45
2023-04-02T04:40:24.052Z,6.85
2023-04-02T04:43:04.606Z,6.75
2023-04-02T04:45:58.096Z,6.47
2023-04-02T04:49:14.259Z,6.60
2023-04-02T04:51:53.225Z,7.50
2023-04-02T04:54:29.037Z,5.93
2023-04-02T04:57:04.163Z,5.63
2023-04-02T04:59:44.329Z,5.55
2023-04-02T05:02:27.304Z,6.00
2023-04-02T05:04:58.859Z,6.40
2023-04-02T05:07:37.792Z,6.40
2023-04-02T05:10:36.729Z,5.38
2023-04-02T05:13:17.606Z,5.45
2023-04-02T05:16:18.011Z,5.70
2023-04-02T05:19:00.431Z,4.90
2023-04-02T05:21:45.418Z,5.63
2023-04-02T05:24:33.289Z,6.07
2023-04-02T05:27:26.020Z,5.13
2023-04-02T05:32:36.873Z,4.68
2023-04-02T05:35:07.934Z,4.82
2023-04-02T05:40:41.580Z,4.93
2023-04-02T05:43:17.462Z,6.32
2023-04-02T05:45:55.573Z,5.70
2023-04-02T05:48:40.556Z,5.20
2023-04-02T05:51:18.792Z,4.88
2023-04-02T05:53:54.839Z,5.70
2023-04-02T05:56:43.694Z,4.50
2023-04-02T05:59:26.855Z,5.05
2023-04-02T06:02:09.320Z,5.07
2023-04-02T06:05:14.393Z,4.38
2023-04-02T06:08:10.464Z,5.25
2023-04-02T06:10:57.171Z,4.55
2023-04-02T06:13:29.653Z,5.88
2023-04-02T06:16:00.256Z,6.35
2023-04-02T06:18:38.345Z,5.25
2023-04-02T06:21:08.756Z,5.47
2023-04-02T06:23:44.867Z,5.85
2023-04-02T06:26:28.301Z,6.20
2023-04-02T06:29:03.636Z,5.35
2023-04-02T06:31:52.467Z,4.90
2023-04-02T06:34:27.076Z,5.63
2023-04-02T06:37:24.650Z,5.43
2023-04-02T06:40:02.430Z,6.90
2023-04-02T06:42:37.414Z,6.43
2023-04-02T06:45:35.480Z,6.55
2023-04-02T06:48:21.130Z,7.70
2023-04-02T06:51:09.515Z,6.97
2023-04-02T06:53:50.830Z,6.28
2023-04-02T06:56:43.488Z,8.48
2023-04-02T06:59:18.224Z,8.05
2023-04-02T07:01:53.932Z,6.38
2023-04-02T07:04:25.097Z,8.13
2023-04-02T07:06:56.910Z,8.52
2023-04-02T07:09:30.517Z,7.65
2023-04-02T07:12:03.017Z,9.60
2023-04-02T07:14:33.957Z,10.98
2023-04-02T07:17:04.734Z,8.13
2023-04-02T07:19:34.761Z,9.02
2023-04-02T07:22:04.541Z,6.35
2023-04-02T07:24:40.117Z,6.30
2023-04-02T07:27:13.262Z,7.68
2023-04-02T07:29:44.833Z,6.22
2023-04-02T07:32:15.631Z,6.43
2023-04-02T07:34:46.074Z,6.57
2023-04-02T07:37:16.738Z,5.68
2023-04-02T07:39:47.392Z,5.93
2023-04-02T07:42:17.386Z,6.10
2023-04-02T07:44:47.813Z,6.95
2023-04-02T07:47:17.829Z,6.85
2023-04-02T07:49:48.250Z,6.57
2023-04-02T07:52:18.290Z,6.18
2023-04-02T07:54:48.916Z,5.80
2023-04-02T07:57:19.040Z,5.85
2023-04-02T07:59:49.581Z,6.18
2023-04-02T08:02:23.839Z,6.18
2023-04-02T08:04:54.515Z,6.22
2023-04-02T08:07:24.510Z,6.47
2023-04-02T08:09:54.922Z,6.15
2023-04-02T08:12:24.929Z,6.13
2023-04-02T08:14:55.548Z,6.22
2023-04-02T08:17:25.657Z,6.32
2023-04-02T08:19:57.311Z,6.38
2023-04-02T08:22:28.736Z,6.50
2023-04-02T08:24:59.227Z,6.13
2023-04-02T08:27:29.261Z,6.28
2023-04-02T08:30:00.014Z,6.50
2023-04-02T08:32:30.234Z,7.25
2023-04-02T08:35:00.711Z,6.78
2023-04-02T08:37:30.740Z,5.85
2023-04-02T08:40:01.174Z,5.90
2023-04-02T08:42:42.478Z,5.65
2023-04-02T08:45:25.746Z,6.20
2023-04-02T08:47:58.694Z,6.32
2023-04-02T08:50:36.263Z,5.70
2023-04-02T08:53:19.990Z,5.40
2023-04-02T08:56:09.620Z,5.40
2023-04-02T08:58:52.374Z,5.28
2023-04-02T09:01:35.922Z,5.80
2023-04-02T09:04:15.623Z,5.60
2023-04-02T09:06:47.676Z,5.90
2023-04-02T09:09:18.690Z,6.75
2023-04-02T09:12:01.926Z,5.90
2023-04-02T09:14:46.372Z,5.47
2023-04-02T09:17:21.333Z,6.28
2023-04-02T09:19:59.318Z,5.40
2023-04-02T09:22:32.995Z,5.35
2023-04-02T09:25:13.282Z,5.75
2023-04-02T09:27:43.729Z,5.70
2023-04-02T09:30:22.784Z,5.53
2023-04-02T09:35:33.522Z,5.80
2023-04-02T09:38:35.604Z,6.22
2023-04-02T09:41:20.082Z,7.80
2023-04-02T09:43:50.533Z,7.13
2023-04-02T09:46:27.408Z,6.82
2023-04-02T09:49:02.766Z,6.20
2023-04-02T09:51:37.624Z,6.75
2023-04-02T09:54:17.572Z,8.18
2023-04-02T09:57:06.956Z,8.68
2023-04-02T09:59:38.682Z,8.40
2023-04-02T10:02:27.820Z,10.18
2023-04-02T10:05:04.770Z,9.15
2023-04-02T10:07:47.075Z,9.10
2023-04-02T10:10:23.948Z,7.88
2023-04-02T10:13:10.747Z,6.53
2023-04-02T10:18:47.770Z,5.35
2023-04-02T10:21:26.433Z,5.60
2023-04-02T10:24:00.316Z,4.88
2023-04-02T10:26:58.017Z,5.43
2023-04-02T10:29:50.276Z,4.97
2023-04-02T10:32:26.700Z,4.70
2023-04-02T10:35:03.585Z,6.07
2023-04-02T10:37:48.964Z,4.30
2023-04-02T10:40:33.960Z,4.32
2023-04-02T10:43:19.720Z,4.20
2023-04-02T10:46:10.016Z,3.88
2023-04-02T10:48:40.008Z,4.50
2023-04-02T10:51:29.922Z,4.30
2023-04-02T10:54:30.107Z,4.05
2023-04-02T10:57:26.240Z,4.20
2023-04-02T11:00:09.043Z,3.60
2023-04-02T11:03:08.219Z,3.72
2023-04-02T11:05:39.245Z,3.40
2023-04-02T11:08:35.927Z,3.58
2023-04-02T11:11:11.857Z,3.08
2023-04-02T11:13:50.289Z,3.42
2023-04-02T11:16:20.815Z,3.30
2023-04-02T11:19:11.959Z,2.80
2023-04-02T11:21:57.863Z,3.58
2023-04-02T11:24:35.271Z,3.55
2023-04-02T11:27:05.279Z,2.50
2023-04-02T11:29:55.261Z,3.67
2023-04-02T11:32:26.458Z,3.35
2023-04-02T11:35:06.419Z,2.88
2023-04-02T11:37:47.785Z,3.03
2023-04-02T11:40:18.422Z,3.60
2023-04-02T11:42:53.845Z,2.95
2023-04-02T11:45:30.291Z,3.45
2023-04-02T11:48:09.261Z,2.58
2023-04-02T11:50:47.612Z,3.53
2023-04-02T11:53:22.226Z,2.97
2023-04-02T11:56:24.948Z,2.58
2023-04-02T11:59:12.820Z,3.25
2023-04-02T12:02:04.541Z,3.25
2023-04-02T12:04:37.480Z,2.97
2023-04-02T12:07:35.897Z,3.28
2023-04-02T12:10:18.588Z,3.00
2023-04-02T12:12:50.066Z,3.47
2023-04-02T12:15:37.701Z,3.40
2023-04-02T12:18:19.022Z,3.33
2023-04-02T12:20:54.513Z,3.55
2023-04-02T12:23:30.306Z,3.08
2023-04-02T12:26:02.695Z,3.17
2023-04-02T12:28:34.978Z,3.45
2023-04-02T12:31:10.127Z,4.30
2023-04-02T12:33:42.284Z,4.10
2023-04-02T12:36:17.895Z,3.97
2023-04-02T12:38:57.233Z,3.88
2023-04-02T12:41:33.406Z,3.80
2023-04-02T12:44:13.859Z,4.07
2023-04-02T12:46:45.141Z,4.13
2023-04-02T12:49:27.136Z,4.10
2023-04-02T12:51:58.909Z,4.78
2023-04-02T12:54:30.084Z,4.03
2023-04-02T12:57:23.352Z,4.22
2023-04-02T12:59:57.897Z,3.95
2023-04-02T13:02:31.317Z,3.60
2023-04-02T13:05:03.473Z,4.00
2023-04-02T13:07:35.122Z,4.00
2023-04-02T13:10:29.270Z,3.33
2023-04-02T13:13:02.064Z,3.75
2023-04-02T13:15:35.513Z,4.20
2023-04-02T13:18:20.298Z,3.85
2023-04-02T13:21:05.260Z,3.70
2023-04-02T13:23:38.303Z,4.38
2023-04-02T13:26:29.636Z,3.53
2023-04-02T13:29:03.816Z,3.95
2023-04-02T13:31:35.365Z,3.80
2023-04-02T13:34:06.184Z,4.18
2023-04-02T13:36:36.751Z,3.97
2023-04-02T13:39:07.725Z,3.45
2023-04-02T13:41:58.609Z,4.40
2023-04-02T13:44:41.373Z,3.58
2023-04-02T13:47:16.599Z,4.10
2023-04-02T13:49:46.726Z,3.78
2023-04-02T13:52:18.387Z,3.40
2023-04-02T13:54:55.470Z,3.00
2023-04-02T13:57:25.989Z,3.72
2023-04-02T13:59:55.998Z,3.60
2023-04-02T14:02:27.527Z,3.30
2023-04-02T14:05:18.846Z,3.38
2023-04-02T14:07:58.266Z,3.60
2023-04-02T14:10:31.126Z,3.10
2023-04-02T14:13:33.285Z,3.45
2023-04-02T14:16:29.139Z,3.20
2023-04-02T14:19:02.454Z,3.20
2023-04-02T14:21:41.052Z,2.67
2023-04-02T14:24:18.377Z,3.15
2023-04-02T14:27:18.293Z,3.20
2023-04-02T14:30:03.396Z,3.53
2023-04-02T14:32:45.235Z,3.58
2023-04-02T14:35:36.914Z,3.67
2023-04-02T14:38:36.939Z,3.08
2023-04-02T14:41:11.835Z,3.60
2023-04-02T14:43:54.484Z,3.28
2023-04-02T14:46:30.018Z,3.00
2023-04-02T14:49:23.722Z,2.92
2023-04-02T14:52:12.450Z,2.95
2023-04-02T14:55:11.503Z,3.03
2023-04-02T14:57:52.980Z,3.15
2023-04-02T15:00:44.354Z,2.72
2023-04-02T15:03:26.907Z,2.85
2023-04-02T15:06:01.776Z,2.90
2023-04-02T15:08:36.345Z,2.97
2023-04-02T15:11:27.637Z,2.85
2023-04-02T15:14:00.424Z,3.15
2023-04-02T15:16:30.485Z,2.70
2023-04-02T15:19:02.593Z,2.63
2023-04-02T15:21:46.489Z,3.92
2023-04-02T15:24:57.443Z,3.40
2023-04-02T15:27:48.940Z,2.53
2023-04-02T15:30:29.060Z,2.78
2023-04-02T15:33:31.543Z,2.67
2023-04-02T15:36:30.698Z,2.97
2023-04-02T15:39:07.487Z,2.90
2023-04-02T15:42:07.174Z,2.72
2023-04-02T15:44:43.020Z,2.58
2023-04-02T15:47:53.840Z,2.63
2023-04-02T15:50:32.687Z,2.47
2023-04-02T15:53:26.297Z,3.10
2023-04-02T15:56:26.429Z,2.35
2023-04-02T15:59:05.862Z,2.78
2023-04-02T16:01:55.817Z,2.67
2023-04-02T16:04:39.006Z,2.67
2023-04-02T16:07:26.658Z,3.40
2023-04-02T16:10:15.304Z,2.58
2023-04-02T16:12:45.818Z,3.10
2023-04-02T16:15:18.920Z,2.97
2023-04-02T16:17:56.377Z,2.42
2023-04-02T16:20:34.224Z,2.50
2023-04-02T16:23:13.415Z,2.72
2023-04-02T16:26:01.679Z,1.77
2023-04-02T16:29:01.307Z,2.40
2023-04-02T16:31:35.452Z,2.95
2023-04-02T16:34:06.585Z,3.13
2023-04-02T16:36:58.778Z,3.10
2023-04-02T16:40:01.791Z,2.42
2023-04-02T16:42:51.414Z,2.50
2023-04-02T16:45:30.119Z,2.80
2023-04-02T16:48:28.548Z,2.45
2023-04-02T16:51:27.735Z,2.50
2023-04-02T16:54:51.701Z,2.85
2023-04-02T16:57:36.124Z,2.38
2023-04-02T17:03:08.381Z,2.50
2023-04-02T17:06:18.176Z,2.17
2023-04-02T17:09:12.825Z,2.33
2023-04-02T17:11:49.307Z,2.47
2023-04-02T17:14:37.937Z,2.40
2023-04-02T17:17:15.844Z,2.40
2023-04-02T17:19:46.799Z,2.80
2023-04-02T17:22:21.898Z,2.35
2023-04-02T17:25:04.532Z,2.70
2023-04-02T17:27:46.790Z,2.28
2023-04-02T17:30:39.963Z,2.33
2023-04-02T17:33:19.557Z,2.22
2023-04-02T17:36:16.662Z,2.38
2023-04-02T17:39:11.701Z,2.28
2023-04-02T17:41:59.394Z,2.28
2023-04-02T17:44:48.112Z,2.40
2023-04-02T17:47:42.560Z,2.20
2023-04-02T17:50:31.117Z,2.17
2023-04-02T17:53:16.669Z,2.50
2023-04-02T17:56:11.121Z,2.83
2023-04-02T17:58:44.165Z,2.13
2023-04-02T18:01:30.209Z,2.45
2023-04-02T18:04:16.897Z,3.00
2023-04-02T18:07:06.581Z,2.55
2023-04-02T18:10:13.265Z,2.47
2023-04-02T18:13:01.998Z,2.97
2023-04-02T18:15:50.443Z,2.58
2023-04-02T18:18:45.124Z,2.40
2023-04-02T18:21:23.424Z,2.90
2023-04-02T18:24:24.687Z,2.63
2023-04-02T18:27:02.541Z,2.30
2023-04-02T18:30:19.650Z,3.38
2023-04-02T18:33:26.513Z,2.60
2023-04-02T18:36:44.356Z,2.88
2023-04-02T18:39:35.952Z,2.85
2023-04-02T18:42:30.963Z,2.38
2023-04-02T18:45:13.565Z,3.03
2023-04-02T18:48:07.387Z,2.63
2023-04-02T18:50:41.233Z,3.08
2023-04-02T18:53:18.719Z,3.08
2023-04-02T18:56:12.460Z,2.40
2023-04-02T18:59:03.121Z,3.45
2023-04-02T19:04:32.257Z,3.00
2023-04-02T19:07:07.566Z,2.83
2023-04-02T19:09:41.805Z,2.85
2023-04-02T19:12:20.850Z,3.47
2023-04-02T19:14:52.745Z,2.85
2023-04-02T19:17:39.046Z,2.20
2023-04-02T19:20:18.194Z,2.17
2023-04-02T19:25:58.079Z,2.92
2023-04-02T19:28:40.094Z,2.97
2023-04-02T19:31:25.304Z,2.38
2023-04-02T19:34:15.545Z,2.55
2023-04-02T19:36:49.886Z,2.28
2023-04-02T19:40:12.961Z,2.55
2023-04-02T19:42:53.319Z,2.42
2023-04-02T19:45:31.324Z,2.42
2023-04-02T19:48:07.977Z,2.65
2023-04-02T19:50:38.328Z,2.53
2023-04-02T19:53:09.579Z,2.53
2023-04-02T19:55:39.696Z,2.50
2023-04-02T19:58:24.910Z,2.35
2023-04-02T20:00:55.525Z,2.67
2023-04-02T20:03:26.152Z,2.45
2023-04-02T20:05:58.109Z,2.47
2023-04-02T20:08:29.649Z,2.60
2023-04-02T20:10:59.914Z,2.53
2023-04-02T20:13:30.774Z,3.03
2023-04-02T20:16:05.843Z,2.80
2023-04-02T20:18:38.207Z,2.63
2023-04-02T20:21:09.080Z,2.97
2023-04-02T20:23:39.781Z,3.05
2023-04-02T20:26:10.494Z,3.22
2023-04-02T20:28:41.198Z,2.63
2023-04-02T20:31:17.386Z,2.90
2023-04-02T20:33:48.930Z,2.72
2023-04-02T20:36:19.321Z,2.55
2023-04-02T20:38:52.060Z,2.70
2023-04-02T20:43:53.921Z,2.45
2023-04-02T20:46:24.160Z,3.38
2023-04-02T20:48:54.699Z,3.15
2023-04-02T20:51:24.772Z,3.38
2023-04-02T20:53:55.576Z,3.58
2023-04-02T20:56:26.038Z,4.03
2023-04-02T20:58:56.540Z,3.40
2023-04-02T21:01:29.133Z,3.75
2023-04-02T21:04:04.903Z,3.88
2023-04-02T21:06:38.330Z,3.17
2023-04-02T21:09:13.994Z,3.35
2023-04-02T21:11:45.019Z,3.83
2023-04-02T21:14:15.568Z,4.20
2023-04-02T21:16:45.748Z,3.60
2023-04-02T21:19:16.449Z,3.90
2023-04-02T21:21:46.590Z,4.70
2023-04-02T21:24:17.008Z,4.05
2023-04-02T21:26:47.697Z,3.72
2023-04-02T21:29:18.584Z,3.55
2023-04-02T21:31:48.641Z,4.03
2023-04-02T21:34:20.220Z,3.80
2023-04-02T21:36:52.143Z,3.30
2023-04-02T21:39:24.891Z,3.53
2023-04-02T21:41:55.963Z,4.85
2023-04-02T21:44:26.946Z,8.82
2023-04-02T21:46:57.327Z,6.18
2023-04-02T21:49:29.210Z,7.47
2023-04-02T21:51:59.301Z,8.48
2023-04-02T21:54:30.675Z,6.80
2023-04-02T21:57:00.954Z,6.90
2023-04-02T21:59:31.505Z,6.35
2023-04-02T22:02:01.827Z,4.63
2023-04-02T22:04:34.434Z,4.38
2023-04-02T22:07:04.586Z,3.80
2023-04-02T22:09:35.026Z,5.13
2023-04-02T22:12:07.567Z,5.25
2023-04-02T22:14:40.921Z,4.25
2023-04-02T22:17:10.989Z,4.00
2023-04-02T22:19:41.519Z,4.13
2023-04-02T22:22:11.527Z,4.97
2023-04-02T22:24:41.471Z,5.35
2023-04-02T22:27:12.246Z,4.63
2023-04-02T22:29:42.299Z,4.88
2023-04-02T22:32:12.724Z,4.53
2023-04-02T22:34:46.614Z,4.43
2023-04-02T22:37:17.238Z,4.20
2023-04-02T22:39:48.157Z,4.60
2023-04-02T22:42:19.584Z,4.35
2023-04-02T22:44:50.190Z,3.75
2023-04-02T22:47:20.811Z,3.72
2023-04-02T22:49:50.831Z,4.68
2023-04-02T22:52:21.429Z,3.60
2023-04-02T22:54:51.473Z,4.43
2023-04-02T22:57:22.627Z,3.60
2023-04-02T22:59:52.677Z,3.92
2023-04-02T23:02:23.210Z,3.72
2023-04-02T23:04:53.310Z,3.92
2023-04-02T23:07:24.789Z,3.65
2023-04-02T23:09:56.085Z,3.83
2023-04-02T23:12:26.882Z,4.00
2023-04-02T23:14:59.163Z,3.90
2023-04-02T23:17:29.934Z,4.38
2023-04-02T23:20:00.015Z,4.25
2023-04-02T23:22:30.509Z,4.65
2023-04-02T23:25:00.610Z,4.28
2023-04-02T23:27:30.421Z,3.78
2023-04-02T23:30:01.205Z,4.45
2023-04-02T23:32:31.480Z,3.97
2023-04-02T23:35:01.904Z,4.00
2023-04-02T23:37:32.510Z,5.20
2023-04-02T23:40:03.013Z,3.55
2023-04-02T23:42:33.174Z,3.70
2023-04-02T23:45:03.600Z,5.25
2023-04-02T23:47:33.436Z,4.20
2023-04-02T23:50:03.859Z,4.88
2023-04-02T23:52:34.012Z,4.03
2023-04-02T23:55:04.831Z,3.92
2023-04-02T23:57:34.889Z,4.38
